This is the latest recevied weather packets stored in our database for station/object SV2HZE-18. If no packets are shown the sender has not sent any weather packets the latest 10 day(s).
| Time | Temp. | Humidity | Pressure | Rain* | Wind** | Luminosity | Snow |
|---|---|---|---|---|---|---|---|
| 1787640644 | 39.44° C | 31% | 1017.7 hPa | - | - | - | - |
| 1787639741 | 37.78° C | 31% | 1017.7 hPa | - | - | - | - |
| 1787638841 | 37.78° C | 33% | 1017.5 hPa | - | - | - | - |
| 1787637937 | 35.56° C | 37% | 1017.4 hPa | - | - | - | - |
| 1787637036 | 35° C | 36% | 1017.4 hPa | - | - | - | - |
| 1787636136 | 36.67° C | 33% | 1017.3 hPa | - | - | - | - |
| 1787635236 | 37.22° C | 31% | 1017.2 hPa | - | - | - | - |
| 1787634335 | 35.56° C | 33% | 1017.1 hPa | - | - | - | - |
| 1787633438 | 32.78° C | 37% | 1017.1 hPa | - | - | - | - |
| 1787632535 | 27.22° C | 49% | 1016.9 hPa | - | - | - | - |
| 1787631635 | 26.11° C | 51% | 1016.7 hPa | - | - | - | - |
| 1787630738 | 26.11° C | 53% | 1016.8 hPa | - | - | - | - |
| 1787629834 | 25.56° C | 53% | 1016.7 hPa | - | - | - | - |
| 1787628934 | 25.56° C | 54% | 1016.6 hPa | - | - | - | - |
| 1787628034 | 26.11° C | 55% | 1016.6 hPa | - | - | - | - |
| 1787627137 | 25.56° C | 54% | 1016.5 hPa | - | - | - | - |
| 1787626237 | 26.11° C | 54% | 1016.5 hPa | - | - | - | - |
| 1787625350 | 26.11° C | 54% | 1016.6 hPa | - | - | - | - |
| 1787624436 | 26.11° C | 54% | 1016.6 hPa | - | - | - | - |
| 1787623532 | 26.67° C | 54% | 1016.5 hPa | - | - | - | - |
| 1787622632 | 26.67° C | 54% | 1016.4 hPa | - | - | - | - |
| 1787621732 | 27.22° C | 53% | 1016.4 hPa | - | - | - | - |
| 1787620834 | 27.22° C | 52% | 1016.4 hPa | - | - | - | - |
| 1787619931 | 27.22° C | 53% | 1016.4 hPa | - | - | - | - |
| 1787619030 | 27.22° C | 53% | 1016.5 hPa | - | - | - | - |
* Rain since midnight (hover to see other rain measurements)
** Current wind speed in m/s (hover to see current wind gust speed)